createdAt,value
2023-01-29T00:00:30.692Z,44
2023-01-29T00:01:30.686Z,43
2023-01-29T00:02:30.685Z,43
2023-01-29T00:03:30.682Z,43
2023-01-29T00:04:30.692Z,44
2023-01-29T00:05:30.680Z,44
2023-01-29T00:06:30.708Z,43
2023-01-29T00:07:30.687Z,41
2023-01-29T00:08:30.685Z,43
2023-01-29T00:09:30.684Z,43
2023-01-29T00:10:30.679Z,42
2023-01-29T00:12:30.689Z,43
2023-01-29T00:13:30.689Z,43
2023-01-29T00:15:30.687Z,42
2023-01-29T00:16:30.686Z,43
2023-01-29T00:17:30.691Z,42
2023-01-29T00:18:30.680Z,43
2023-01-29T00:19:30.687Z,44
2023-01-29T00:20:30.694Z,43
2023-01-29T00:21:30.683Z,41
2023-01-29T00:22:30.715Z,43
2023-01-29T00:23:30.677Z,43
2023-01-29T00:24:30.739Z,43
2023-01-29T00:25:30.694Z,43
2023-01-29T00:26:30.685Z,43
2023-01-29T00:27:30.696Z,42
2023-01-29T00:28:30.693Z,43
2023-01-29T00:29:30.684Z,42
2023-01-29T00:30:30.754Z,42
2023-01-29T00:31:30.790Z,42
2023-01-29T00:32:30.692Z,41
2023-01-29T00:33:30.697Z,42
2023-01-29T00:34:30.682Z,42
2023-01-29T00:35:30.703Z,43
2023-01-29T00:36:30.689Z,41
2023-01-29T00:37:30.691Z,42
2023-01-29T00:38:30.680Z,43
2023-01-29T00:39:45.968Z,43
2023-01-29T00:40:30.704Z,42
2023-01-29T00:41:30.686Z,42
2023-01-29T00:42:30.684Z,41
2023-01-29T00:43:30.791Z,42
2023-01-29T00:44:30.683Z,42
2023-01-29T00:45:30.689Z,41
2023-01-29T00:46:30.740Z,42
2023-01-29T00:47:30.767Z,42
2023-01-29T00:48:30.685Z,41
2023-01-29T00:49:30.698Z,41
2023-01-29T00:50:30.685Z,42
2023-01-29T00:51:30.698Z,42
2023-01-29T00:52:30.682Z,40
2023-01-29T00:53:30.715Z,43
2023-01-29T00:54:32.935Z,43
2023-01-29T00:55:30.708Z,43
2023-01-29T00:56:30.683Z,43
2023-01-29T00:57:30.719Z,43
2023-01-29T00:58:30.685Z,42
2023-01-29T00:59:30.684Z,41
2023-01-29T01:00:30.760Z,42
2023-01-29T01:01:30.677Z,41
2023-01-29T01:02:30.685Z,41
2023-01-29T01:03:30.692Z,42
2023-01-29T01:04:30.691Z,41
2023-01-29T01:05:30.683Z,40
2023-01-29T01:07:30.693Z,40
2023-01-29T01:14:37.858Z,42
2023-01-29T01:57:30.696Z,41
2023-01-29T05:33:30.700Z,44
2023-01-29T05:56:30.677Z,43
2023-01-29T05:57:30.676Z,43
2023-01-29T05:58:30.679Z,43
2023-01-29T05:59:30.676Z,43
2023-01-29T06:00:30.665Z,42
2023-01-29T06:01:30.738Z,45
2023-01-29T06:02:30.694Z,43
2023-01-29T06:03:30.677Z,45
2023-01-29T06:04:30.732Z,44
2023-01-29T06:05:30.682Z,43
2023-01-29T06:06:30.670Z,45
2023-01-29T06:07:30.728Z,44
2023-01-29T06:08:30.680Z,46
2023-01-29T06:09:30.669Z,45
2023-01-29T06:10:30.677Z,44
2023-01-29T06:11:30.674Z,46
2023-01-29T06:12:30.672Z,45
2023-01-29T06:13:30.679Z,44
2023-01-29T06:14:30.666Z,44
2023-01-29T06:15:30.699Z,43
2023-01-29T06:16:30.736Z,44
2023-01-29T06:17:30.687Z,44
2023-01-29T06:18:30.668Z,44
2023-01-29T06:19:30.670Z,42
2023-01-29T06:20:30.678Z,43
2023-01-29T06:21:30.677Z,46
2023-01-29T06:22:30.679Z,44
2023-01-29T06:23:30.674Z,44
2023-01-29T06:24:30.746Z,45
2023-01-29T06:25:30.668Z,44
2023-01-29T06:26:30.677Z,44
2023-01-29T06:27:30.699Z,44
2023-01-29T06:28:30.665Z,44
2023-01-29T06:29:30.710Z,43
2023-01-29T06:30:30.697Z,44
2023-01-29T06:31:38.921Z,46
2023-01-29T06:32:30.713Z,45
2023-01-29T06:33:30.680Z,45
2023-01-29T06:34:30.673Z,45
2023-01-29T06:35:30.670Z,45
2023-01-29T06:36:30.668Z,46
2023-01-29T06:37:30.666Z,44
2023-01-29T06:38:30.669Z,47
2023-01-29T06:39:30.671Z,46
2023-01-29T06:40:30.664Z,47
2023-01-29T06:41:30.680Z,46
2023-01-29T06:42:30.668Z,45
2023-01-29T06:43:30.665Z,46
2023-01-29T06:44:30.671Z,45
2023-01-29T06:45:30.708Z,45
2023-01-29T06:46:30.671Z,46
2023-01-29T06:47:30.675Z,43
2023-01-29T06:48:30.662Z,44
2023-01-29T06:49:30.660Z,43
2023-01-29T06:50:30.669Z,44
2023-01-29T06:51:30.663Z,43
2023-01-29T06:52:30.668Z,44
2023-01-29T06:53:30.671Z,45
2023-01-29T06:54:30.671Z,44
2023-01-29T06:55:30.668Z,43
2023-01-29T06:56:30.667Z,42
2023-01-29T06:57:30.692Z,45
2023-01-29T06:58:30.680Z,43
2023-01-29T06:59:30.671Z,44
2023-01-29T07:00:31.598Z,43
2023-01-29T07:01:36.015Z,44
2023-01-29T07:02:30.736Z,43
2023-01-29T07:03:30.693Z,42
2023-01-29T07:04:30.678Z,42
2023-01-29T07:05:30.671Z,43
2023-01-29T07:06:30.662Z,41
2023-01-29T07:07:30.692Z,42
2023-01-29T07:08:30.677Z,42
2023-01-29T07:09:30.666Z,43
2023-01-29T07:10:30.681Z,42
2023-01-29T07:11:30.667Z,41
2023-01-29T07:12:30.662Z,42
2023-01-29T07:14:30.669Z,43
2023-01-29T07:15:30.668Z,43
2023-01-29T07:16:30.714Z,42
2023-01-29T07:17:30.672Z,42
2023-01-29T07:18:30.665Z,42
2023-01-29T07:19:30.667Z,42
2023-01-29T07:20:30.669Z,42
2023-01-29T07:21:30.668Z,42
2023-01-29T07:22:30.679Z,44
2023-01-29T07:23:30.671Z,43
2023-01-29T07:24:30.720Z,45
2023-01-29T07:25:30.676Z,42
2023-01-29T07:26:30.670Z,43
2023-01-29T07:27:30.675Z,45
2023-01-29T07:28:30.683Z,42
2023-01-29T07:29:30.667Z,42
2023-01-29T07:30:30.686Z,43
2023-01-29T07:31:30.837Z,41
2023-01-29T07:32:30.660Z,40
2023-01-29T07:33:30.671Z,41
2023-01-29T07:35:30.673Z,41
2023-01-29T07:36:30.714Z,43
2023-01-29T07:37:30.663Z,41
2023-01-29T07:38:30.657Z,42
2023-01-29T07:39:30.663Z,42
2023-01-29T07:40:30.669Z,41
2023-01-29T07:41:30.698Z,41
2023-01-29T07:42:30.667Z,43
2023-01-29T07:43:30.664Z,43
2023-01-29T07:44:30.669Z,43
2023-01-29T07:45:30.761Z,42
2023-01-29T07:46:30.661Z,42
2023-01-29T07:47:30.668Z,43
2023-01-29T07:48:30.666Z,44
2023-01-29T07:49:30.661Z,43
2023-01-29T07:50:30.668Z,44
2023-01-29T07:51:30.678Z,44
2023-01-29T07:52:30.668Z,45
2023-01-29T07:53:30.665Z,43
2023-01-29T07:54:30.673Z,43
2023-01-29T07:55:30.713Z,44
2023-01-29T07:56:30.662Z,43
2023-01-29T07:57:30.667Z,46
2023-01-29T07:58:30.670Z,44
2023-01-29T08:00:30.676Z,42
2023-01-29T08:01:30.718Z,42
2023-01-29T08:02:30.666Z,43
2023-01-29T08:03:30.663Z,42
2023-01-29T08:04:30.694Z,44
2023-01-29T08:05:30.743Z,41
2023-01-29T08:06:30.664Z,43
2023-01-29T08:07:30.675Z,40
2023-01-29T08:08:30.679Z,44
2023-01-29T08:09:30.666Z,42
2023-01-29T08:10:30.695Z,41
2023-01-29T08:11:30.739Z,42
2023-01-29T08:12:30.693Z,42
2023-01-29T08:13:30.668Z,43
2023-01-29T08:14:30.669Z,43
2023-01-29T08:15:30.679Z,42
2023-01-29T08:16:30.819Z,42
2023-01-29T08:17:30.663Z,42
2023-01-29T08:18:30.663Z,44
2023-01-29T08:19:30.664Z,43
2023-01-29T08:20:30.693Z,42
2023-01-29T08:21:30.668Z,43
2023-01-29T08:22:30.666Z,43
2023-01-29T08:23:30.667Z,43
2023-01-29T08:24:41.603Z,44
2023-01-29T08:25:30.757Z,44
2023-01-29T08:26:30.668Z,43
2023-01-29T08:27:30.664Z,42
2023-01-29T08:28:31.048Z,43
2023-01-29T08:29:30.665Z,44
2023-01-29T08:30:30.675Z,44
2023-01-29T08:31:30.708Z,43
2023-01-29T08:32:30.718Z,43
2023-01-29T08:33:38.651Z,42
2023-01-29T08:34:30.659Z,44
2023-01-29T08:37:30.664Z,43
2023-01-29T08:38:31.052Z,44
2023-01-29T08:39:30.961Z,44
2023-01-29T08:40:30.668Z,44
2023-01-29T08:41:30.716Z,42
2023-01-29T08:42:30.679Z,43
2023-01-29T08:43:30.666Z,43
2023-01-29T08:44:30.670Z,44
2023-01-29T08:45:30.669Z,45
2023-01-29T08:46:30.669Z,43
2023-01-29T08:47:30.669Z,43
2023-01-29T08:48:30.691Z,45
2023-01-29T08:49:30.672Z,43
2023-01-29T08:50:30.768Z,43
2023-01-29T08:51:30.675Z,43
2023-01-29T08:52:30.663Z,43
2023-01-29T08:53:30.765Z,42
2023-01-29T08:54:30.666Z,45
2023-01-29T08:55:30.659Z,42
2023-01-29T08:56:30.664Z,43
2023-01-29T08:57:30.665Z,44
2023-01-29T08:58:30.657Z,41
2023-01-29T08:59:30.660Z,41
2023-01-29T09:00:30.664Z,41
2023-01-29T09:01:30.721Z,43
2023-01-29T09:02:30.742Z,42
2023-01-29T09:03:30.656Z,41
2023-01-29T09:04:30.656Z,43
2023-01-29T09:05:30.660Z,42
2023-01-29T09:06:30.669Z,41
2023-01-29T09:07:30.662Z,42
2023-01-29T09:08:30.665Z,41
2023-01-29T09:09:30.673Z,42
2023-01-29T09:10:30.661Z,42
2023-01-29T09:11:30.686Z,42
2023-01-29T09:12:30.661Z,42
2023-01-29T09:13:30.664Z,43
2023-01-29T09:14:30.663Z,42
2023-01-29T09:15:30.692Z,42
2023-01-29T09:16:30.687Z,42
2023-01-29T09:17:30.667Z,41
2023-01-29T09:18:30.663Z,44
2023-01-29T09:19:30.661Z,42
2023-01-29T09:20:30.680Z,42
2023-01-29T09:21:30.656Z,41
2023-01-29T09:22:30.656Z,44
2023-01-29T09:23:30.666Z,44
2023-01-29T09:25:30.662Z,41
2023-01-29T09:26:30.717Z,41
2023-01-29T09:27:30.686Z,42
2023-01-29T09:28:30.680Z,40
2023-01-29T09:29:30.663Z,42
2023-01-29T09:31:30.796Z,42
2023-01-29T09:32:52.522Z,41
2023-01-29T09:33:30.656Z,40
2023-01-29T09:34:30.659Z,43
2023-01-29T09:36:30.665Z,43
2023-01-29T09:37:30.717Z,43
2023-01-29T09:38:30.681Z,41
2023-01-29T09:39:30.984Z,43
2023-01-29T09:40:30.666Z,42
2023-01-29T09:41:30.949Z,43
2023-01-29T09:42:30.720Z,41
2023-01-29T09:43:30.669Z,42
2023-01-29T09:44:30.672Z,43
2023-01-29T09:45:30.678Z,41
2023-01-29T09:46:30.692Z,41
2023-01-29T09:47:30.663Z,41
2023-01-29T09:48:30.660Z,43
2023-01-29T09:49:30.656Z,42
2023-01-29T09:50:30.663Z,42
2023-01-29T09:52:30.655Z,42
2023-01-29T09:53:30.679Z,42
2023-01-29T09:54:30.659Z,40
2023-01-29T09:55:30.672Z,42
2023-01-29T09:56:30.655Z,42
2023-01-29T09:57:30.654Z,42
2023-01-29T09:58:30.662Z,41
2023-01-29T09:59:30.658Z,42
2023-01-29T10:00:30.660Z,41
2023-01-29T10:01:30.762Z,42
2023-01-29T10:02:30.669Z,40
2023-01-29T10:03:30.659Z,41
2023-01-29T10:04:30.740Z,42
2023-01-29T10:05:30.656Z,42
2023-01-29T10:06:30.664Z,40
2023-01-29T10:07:30.653Z,41
2023-01-29T10:08:30.653Z,41
2023-01-29T10:09:30.653Z,41
2023-01-29T10:10:30.658Z,42
2023-01-29T10:11:30.662Z,41
2023-01-29T10:12:30.664Z,42
2023-01-29T10:13:30.683Z,42
2023-01-29T10:14:30.659Z,41
2023-01-29T10:15:30.674Z,41
2023-01-29T10:16:30.709Z,41
2023-01-29T10:17:30.666Z,41
2023-01-29T10:18:30.662Z,42
2023-01-29T10:19:30.657Z,41
2023-01-29T10:20:30.651Z,41
2023-01-29T10:21:30.663Z,42
2023-01-29T10:22:30.658Z,42
2023-01-29T10:23:31.903Z,43
2023-01-29T10:24:30.662Z,42
2023-01-29T10:25:30.659Z,44
2023-01-29T10:26:30.679Z,42
2023-01-29T10:27:30.661Z,40
2023-01-29T10:28:30.663Z,41
2023-01-29T10:29:30.655Z,41
2023-01-29T10:30:30.686Z,40
2023-01-29T10:31:30.751Z,41
2023-01-29T10:32:30.658Z,40
2023-01-29T10:33:39.085Z,40
2023-01-29T10:34:30.668Z,41
2023-01-29T10:36:30.657Z,41
2023-01-29T10:37:30.661Z,41
2023-01-29T10:38:30.668Z,39
2023-01-29T10:39:30.666Z,40
2023-01-29T10:40:30.660Z,41
2023-01-29T10:41:30.664Z,40
2023-01-29T10:42:30.679Z,40
2023-01-29T10:43:30.685Z,39
2023-01-29T10:44:30.663Z,40
2023-01-29T10:45:30.659Z,40
2023-01-29T10:46:30.662Z,40
2023-01-29T10:47:30.850Z,40
2023-01-29T10:48:30.673Z,41
2023-01-29T10:49:30.819Z,40
2023-01-29T10:50:30.665Z,38
2023-01-29T10:51:30.666Z,41
2023-01-29T10:52:30.670Z,40
2023-01-29T10:53:30.675Z,40
2023-01-29T10:54:30.655Z,41
2023-01-29T10:55:30.656Z,39
2023-01-29T10:56:30.662Z,41
2023-01-29T10:57:30.674Z,41
2023-01-29T10:58:30.688Z,40
2023-01-29T10:59:30.659Z,39
2023-01-29T11:00:30.672Z,40
2023-01-29T11:01:30.717Z,40
2023-01-29T11:02:30.707Z,43
2023-01-29T11:03:30.713Z,40
2023-01-29T11:04:30.651Z,40
2023-01-29T11:05:30.654Z,41
2023-01-29T11:06:30.674Z,40
2023-01-29T11:07:30.664Z,41
2023-01-29T11:08:30.686Z,41
2023-01-29T11:10:30.659Z,39
2023-01-29T11:11:30.661Z,42
2023-01-29T11:12:30.932Z,41
2023-01-29T11:13:30.664Z,42
2023-01-29T11:14:30.668Z,40
2023-01-29T11:16:30.705Z,40
2023-01-29T11:17:30.667Z,41
2023-01-29T11:18:30.665Z,38
2023-01-29T11:19:30.660Z,41
2023-01-29T11:20:30.654Z,39
2023-01-29T11:21:30.668Z,41
2023-01-29T11:22:30.671Z,42
2023-01-29T11:23:30.653Z,40
2023-01-29T11:24:30.660Z,40
2023-01-29T11:25:30.656Z,41
2023-01-29T11:26:30.715Z,40
2023-01-29T11:27:30.659Z,41
2023-01-29T11:28:30.668Z,40
2023-01-29T11:29:30.668Z,38
2023-01-29T11:30:30.668Z,39
2023-01-29T11:31:30.779Z,40
2023-01-29T11:33:30.658Z,42
2023-01-29T11:34:30.707Z,40
2023-01-29T11:35:30.673Z,43
2023-01-29T11:36:30.667Z,41
2023-01-29T11:37:30.665Z,40
2023-01-29T11:38:30.661Z,40
2023-01-29T11:39:30.657Z,40
2023-01-29T11:40:30.666Z,40
2023-01-29T11:41:30.654Z,40
2023-01-29T11:42:30.869Z,39
2023-01-29T11:43:30.670Z,39
2023-01-29T11:44:30.659Z,41
2023-01-29T11:45:30.656Z,40
2023-01-29T11:46:30.674Z,40
2023-01-29T11:47:30.665Z,41
2023-01-29T11:48:30.660Z,41
2023-01-29T11:49:30.659Z,41
2023-01-29T11:50:30.650Z,40
2023-01-29T11:51:30.673Z,40
2023-01-29T11:52:30.651Z,39
2023-01-29T11:53:30.647Z,38
2023-01-29T11:54:30.666Z,41
2023-01-29T11:55:40.935Z,39
2023-01-29T11:56:30.822Z,39
2023-01-29T11:57:30.675Z,39
2023-01-29T11:58:30.661Z,40
2023-01-29T11:59:30.665Z,39
2023-01-29T12:00:30.769Z,38
2023-01-29T12:01:30.659Z,40
2023-01-29T12:02:30.713Z,38
2023-01-29T12:03:30.717Z,41
2023-01-29T12:04:30.659Z,39
2023-01-29T12:05:30.784Z,40
2023-01-29T12:06:30.658Z,39
2023-01-29T12:07:30.657Z,39
2023-01-29T12:08:30.684Z,40
2023-01-29T12:09:30.664Z,39
2023-01-29T12:10:30.655Z,38
2023-01-29T12:11:30.660Z,40
2023-01-29T12:12:30.651Z,39
2023-01-29T12:13:30.663Z,37
2023-01-29T12:14:30.660Z,39
2023-01-29T12:15:30.662Z,39
2023-01-29T12:16:30.713Z,40
2023-01-29T12:17:30.687Z,39
2023-01-29T12:18:30.667Z,38
2023-01-29T12:19:30.664Z,39
2023-01-29T12:20:30.660Z,39
2023-01-29T12:21:30.666Z,39
2023-01-29T12:22:30.655Z,39
2023-01-29T12:23:30.658Z,39
2023-01-29T12:24:30.688Z,38
2023-01-29T12:25:30.661Z,40
2023-01-29T12:26:30.709Z,39
2023-01-29T12:27:30.655Z,40
2023-01-29T12:28:30.657Z,40
2023-01-29T12:29:30.659Z,40
2023-01-29T12:30:30.685Z,40
2023-01-29T12:31:30.703Z,39
2023-01-29T12:32:30.699Z,40
2023-01-29T12:33:30.662Z,38
2023-01-29T12:34:30.661Z,39
2023-01-29T12:35:30.663Z,39
2023-01-29T12:36:30.659Z,40
2023-01-29T12:37:30.660Z,40
2023-01-29T12:38:30.657Z,39
2023-01-29T12:39:30.673Z,40
2023-01-29T12:40:30.661Z,39
2023-01-29T12:41:30.681Z,37
2023-01-29T12:42:30.682Z,38
2023-01-29T12:43:30.664Z,39
2023-01-29T12:44:30.653Z,38
2023-01-29T12:45:30.665Z,38
2023-01-29T12:46:30.725Z,37
2023-01-29T12:47:30.658Z,39
2023-01-29T12:48:30.670Z,38
2023-01-29T12:49:30.672Z,38
2023-01-29T12:50:30.652Z,36
2023-01-29T12:51:30.661Z,38
2023-01-29T12:52:30.665Z,37
2023-01-29T12:53:30.655Z,38
2023-01-29T12:54:30.660Z,39
2023-01-29T12:55:30.661Z,38
2023-01-29T12:56:30.657Z,39
2023-01-29T12:57:30.653Z,39
2023-01-29T12:58:30.663Z,40
2023-01-29T12:59:30.667Z,39
2023-01-29T13:00:30.667Z,39
2023-01-29T13:01:30.695Z,41
2023-01-29T13:02:30.660Z,37
2023-01-29T13:03:30.770Z,38
2023-01-29T13:04:30.655Z,38
2023-01-29T13:05:30.655Z,40
2023-01-29T13:06:30.662Z,38
2023-01-29T13:07:30.653Z,39
2023-01-29T13:08:30.651Z,39
2023-01-29T13:09:30.655Z,38
2023-01-29T13:10:30.656Z,37
2023-01-29T13:12:30.648Z,38
2023-01-29T13:13:30.657Z,38
2023-01-29T13:14:30.652Z,37
2023-01-29T13:15:30.660Z,39
2023-01-29T13:16:30.782Z,37
2023-01-29T13:17:30.661Z,37
2023-01-29T13:18:30.661Z,37
2023-01-29T13:19:30.660Z,38
2023-01-29T13:20:30.720Z,38
2023-01-29T13:21:30.657Z,36
2023-01-29T13:22:30.661Z,38
2023-01-29T13:23:30.658Z,38
2023-01-29T13:24:30.660Z,38
2023-01-29T13:25:30.662Z,38
2023-01-29T13:27:30.647Z,38
2023-01-29T13:28:30.675Z,37
2023-01-29T13:30:30.745Z,37
2023-01-29T13:31:30.673Z,37
2023-01-29T13:32:30.669Z,37
2023-01-29T13:33:30.661Z,35
2023-01-29T13:34:30.658Z,36
2023-01-29T13:35:30.649Z,36
2023-01-29T13:36:30.651Z,37
2023-01-29T13:37:30.675Z,37
2023-01-29T13:38:30.696Z,37
2023-01-29T13:39:30.651Z,36
2023-01-29T13:40:30.650Z,36
2023-01-29T13:41:30.653Z,37
2023-01-29T13:42:30.649Z,35
2023-01-29T13:43:30.656Z,37
2023-01-29T13:44:30.650Z,36
2023-01-29T13:45:30.652Z,35
2023-01-29T13:46:30.670Z,37
2023-01-29T13:47:30.659Z,36
2023-01-29T13:48:30.653Z,36
2023-01-29T13:49:30.654Z,35
2023-01-29T13:50:30.653Z,37
2023-01-29T13:51:30.657Z,36
2023-01-29T13:52:30.660Z,36
2023-01-29T13:53:30.650Z,36
2023-01-29T13:54:30.663Z,37
2023-01-29T13:55:30.658Z,35
2023-01-29T13:56:30.664Z,35
2023-01-29T13:57:30.657Z,36
2023-01-29T13:58:30.723Z,38
2023-01-29T13:59:30.661Z,37
2023-01-29T14:00:30.657Z,36
2023-01-29T14:01:30.694Z,36
2023-01-29T14:02:30.778Z,36
2023-01-29T14:03:45.043Z,35
2023-01-29T14:04:30.659Z,36
2023-01-29T14:05:30.860Z,36
2023-01-29T14:06:30.653Z,35
2023-01-29T14:07:30.659Z,38
2023-01-29T14:08:30.683Z,37
2023-01-29T14:09:30.658Z,36
2023-01-29T14:10:30.707Z,35
2023-01-29T14:11:30.654Z,36
2023-01-29T14:12:30.658Z,36
2023-01-29T14:13:30.650Z,36
2023-01-29T14:14:30.657Z,36
2023-01-29T14:15:30.697Z,38
2023-01-29T14:16:30.697Z,36
2023-01-29T14:17:30.656Z,37
2023-01-29T14:18:30.665Z,36
2023-01-29T14:19:30.665Z,36
2023-01-29T14:22:31.023Z,36
2023-01-29T14:23:30.667Z,38
2023-01-29T14:24:30.665Z,37
2023-01-29T14:25:30.667Z,36
2023-01-29T14:26:30.722Z,36
2023-01-29T14:27:30.658Z,36
2023-01-29T14:28:30.668Z,36
2023-01-29T14:29:34.847Z,34
2023-01-29T14:30:30.727Z,37
2023-01-29T14:31:30.801Z,37
2023-01-29T14:32:30.658Z,36
2023-01-29T14:33:30.660Z,36
2023-01-29T14:35:30.671Z,37
2023-01-29T14:36:30.879Z,36
2023-01-29T14:37:30.655Z,37
2023-01-29T14:38:30.660Z,35
2023-01-29T14:39:30.657Z,36
2023-01-29T14:40:30.661Z,36
2023-01-29T14:41:30.651Z,36
2023-01-29T14:43:30.671Z,37
2023-01-29T14:44:30.667Z,35
2023-01-29T14:45:30.656Z,37
2023-01-29T14:46:30.715Z,36
2023-01-29T14:48:30.661Z,36
2023-01-29T14:49:30.664Z,36
2023-01-29T14:50:30.661Z,37
2023-01-29T14:51:30.653Z,37
2023-01-29T14:52:31.092Z,35
2023-01-29T14:53:30.675Z,37
2023-01-29T14:54:30.661Z,37
2023-01-29T14:55:30.672Z,36
2023-01-29T14:56:30.733Z,35
2023-01-29T14:57:30.714Z,37
2023-01-29T14:58:30.665Z,36
2023-01-29T14:59:30.666Z,36
2023-01-29T15:00:30.656Z,35
2023-01-29T15:01:30.710Z,36
2023-01-29T15:02:30.771Z,36
2023-01-29T15:04:30.661Z,36
2023-01-29T15:05:30.651Z,35
2023-01-29T15:06:30.663Z,36
2023-01-29T15:07:30.655Z,35
2023-01-29T15:08:30.667Z,38
2023-01-29T15:10:30.659Z,36
2023-01-29T15:11:30.674Z,35
2023-01-29T15:13:30.658Z,35
2023-01-29T15:14:30.656Z,35
2023-01-29T15:15:30.751Z,37
2023-01-29T15:17:30.657Z,35
2023-01-29T15:19:30.655Z,36
2023-01-29T15:20:30.657Z,36
2023-01-29T15:21:30.652Z,35
2023-01-29T15:22:30.782Z,35
2023-01-29T15:23:30.669Z,38
2023-01-29T15:24:30.649Z,36
2023-01-29T15:25:30.659Z,34
2023-01-29T15:26:30.758Z,36
2023-01-29T15:27:30.659Z,35
2023-01-29T15:28:30.653Z,36
2023-01-29T15:29:30.651Z,35
2023-01-29T15:30:30.675Z,36
2023-01-29T15:31:30.793Z,36
2023-01-29T15:32:30.724Z,34
2023-01-29T15:33:30.669Z,35
2023-01-29T15:34:30.661Z,35
2023-01-29T15:35:30.652Z,34
2023-01-29T15:36:30.657Z,35
2023-01-29T15:37:30.846Z,36
2023-01-29T15:38:30.652Z,36
2023-01-29T15:40:30.653Z,37
2023-01-29T15:41:30.663Z,36
2023-01-29T15:42:30.957Z,38
2023-01-29T15:43:30.668Z,36
2023-01-29T15:44:30.654Z,36
2023-01-29T15:45:30.655Z,35
2023-01-29T15:46:30.658Z,35
2023-01-29T15:47:30.796Z,36
2023-01-29T15:48:32.823Z,36
2023-01-29T15:49:30.668Z,35
2023-01-29T15:50:30.654Z,37
2023-01-29T15:51:30.736Z,35
2023-01-29T15:52:30.720Z,36
2023-01-29T15:53:30.658Z,36
2023-01-29T15:54:30.657Z,35
2023-01-29T15:55:30.652Z,36
2023-01-29T15:56:30.666Z,37
2023-01-29T15:57:30.709Z,36
2023-01-29T15:58:30.647Z,34
2023-01-29T15:59:30.720Z,35
2023-01-29T16:00:30.652Z,36
2023-01-29T16:01:30.781Z,35
2023-01-29T16:02:30.721Z,35
2023-01-29T16:04:30.653Z,35
2023-01-29T16:05:30.669Z,34
2023-01-29T16:06:30.656Z,34
2023-01-29T16:07:30.668Z,33
2023-01-29T16:08:30.659Z,35
2023-01-29T16:09:30.655Z,34
2023-01-29T16:11:30.659Z,34
2023-01-29T16:12:30.664Z,34
2023-01-29T16:13:30.648Z,32
2023-01-29T16:14:30.652Z,32
2023-01-29T16:15:30.657Z,32
2023-01-29T16:16:30.735Z,33
2023-01-29T16:17:30.649Z,33
2023-01-29T16:18:30.660Z,31
2023-01-29T16:19:30.653Z,33
2023-01-29T16:20:30.646Z,34
2023-01-29T16:21:30.660Z,34
2023-01-29T16:22:30.670Z,31
2023-01-29T16:23:30.687Z,31
2023-01-29T16:26:30.691Z,31
2023-01-29T16:27:30.665Z,29
2023-01-29T16:28:30.657Z,30
2023-01-29T16:29:30.649Z,30
2023-01-29T16:30:30.721Z,30
2023-01-29T16:31:30.755Z,30
2023-01-29T16:32:30.663Z,30
2023-01-29T16:33:30.655Z,30
2023-01-29T16:34:30.654Z,29
2023-01-29T16:35:30.662Z,30
2023-01-29T16:36:30.661Z,30
2023-01-29T16:37:30.654Z,29
2023-01-29T16:38:30.658Z,29
2023-01-29T16:39:30.683Z,30
2023-01-29T16:40:30.657Z,30
2023-01-29T16:41:30.659Z,28
2023-01-29T16:42:30.666Z,28
2023-01-29T16:43:37.489Z,29
2023-01-29T16:44:30.662Z,30
2023-01-29T16:45:30.652Z,29
2023-01-29T16:46:30.662Z,28
2023-01-29T16:47:30.643Z,29
2023-01-29T16:51:30.645Z,29
2023-01-29T16:52:30.659Z,29
2023-01-29T16:53:30.648Z,28
2023-01-29T16:54:30.651Z,29
2023-01-29T16:55:31.373Z,29
2023-01-29T16:57:30.658Z,29
2023-01-29T16:58:30.671Z,28
2023-01-29T17:00:30.722Z,27
2023-01-29T17:01:30.651Z,28
2023-01-29T17:02:30.653Z,27
2023-01-29T17:05:30.650Z,29
2023-01-29T17:06:30.667Z,28
2023-01-29T17:07:30.648Z,27
2023-01-29T17:09:30.648Z,29
2023-01-29T17:10:30.652Z,28
2023-01-29T17:11:30.648Z,29
2023-01-29T17:12:30.681Z,28
2023-01-29T17:13:30.652Z,30
2023-01-29T17:14:30.650Z,27
2023-01-29T17:15:30.649Z,28
2023-01-29T17:16:30.733Z,27
2023-01-29T17:17:30.652Z,30
2023-01-29T17:18:30.652Z,27
2023-01-29T17:19:30.671Z,27
2023-01-29T17:22:30.652Z,29
2023-01-29T17:23:30.655Z,28
2023-01-29T17:24:30.648Z,27
2023-01-29T17:25:30.654Z,30
2023-01-29T17:47:31.720Z,32
2023-01-29T17:49:31.719Z,31
2023-01-29T19:16:31.737Z,28
2023-01-29T19:18:31.710Z,29
2023-01-29T21:24:31.725Z,31
2023-01-29T23:38:31.736Z,36
